Map

Track Data

SID SEASON NUMBER BASIN SUBBASIN NAME ISO_TIME NATURE LAT LON WMO_WIND WMO_PRES WMO_AGENCY TRACK_TYPE DIST2LAND LANDFALL IFLAG USA_AGENCY USA_ATCF_ID USA_LAT USA_LON USA_RECORD USA_STATUS USA_WIND USA_PRES USA_SSHS USA_R34_NE USA_R34_SE USA_R34_SW USA_R34_NW USA_R50_NE USA_R50_SE USA_R50_SW USA_R50_NW USA_R64_NE USA_R64_SE USA_R64_SW USA_R64_NW USA_POCI USA_ROCI USA_RMW USA_EYE TOKYO_LAT TOKYO_LON TOKYO_GRADE TOKYO_WIND TOKYO_PRES TOKYO_R50_DIR TOKYO_R50_LONG TOKYO_R50_SHORT TOKYO_R30_DIR TOKYO_R30_LONG TOKYO_R30_SHORT TOKYO_LAND CMA_LAT CMA_LON CMA_CAT CMA_WIND CMA_PRES HKO_LAT HKO_LON HKO_CAT HKO_WIND HKO_PRES NEWDELHI_LAT NEWDELHI_LON NEWDELHI_GRADE NEWDELHI_WIND NEWDELHI_PRES NEWDELHI_CI NEWDELHI_DP NEWDELHI_POCI REUNION_LAT REUNION_LON REUNION_TYPE REUNION_WIND REUNION_PRES REUNION_TNUM REUNION_CI REUNION_RMW REUNION_R34_NE REUNION_R34_SE REUNION_R34_SW REUNION_R34_NW REUNION_R50_NE REUNION_R50_SE REUNION_R50_SW REUNION_R50_NW REUNION_R64_NE REUNION_R64_SE REUNION_R64_SW REUNION_R64_NW BOM_LAT BOM_LON BOM_TYPE BOM_WIND BOM_PRES BOM_TNUM BOM_CI BOM_RMW BOM_R34_NE BOM_R34_SE BOM_R34_SW BOM_R34_NW BOM_R50_NE BOM_R50_SE BOM_R50_SW BOM_R50_NW BOM_R64_NE BOM_R64_SE BOM_R64_SW BOM_R64_NW BOM_ROCI BOM_POCI BOM_EYE BOM_POS_METHOD BOM_PRES_METHOD NADI_LAT NADI_LON NADI_CAT NADI_WIND NADI_PRES WELLINGTON_LAT WELLINGTON_LON WELLINGTON_WIND WELLINGTON_PRES DS824_LAT DS824_LON DS824_STAGE DS824_WIND DS824_PRES TD9636_LAT TD9636_LON TD9636_STAGE TD9636_WIND TD9636_PRES TD9635_LAT TD9635_LON TD9635_WIND TD9635_PRES TD9635_ROCI NEUMANN_LAT NEUMANN_LON NEUMANN_CLASS NEUMANN_WIND NEUMANN_PRES MLC_LAT MLC_LON MLC_CLASS MLC_WIND MLC_PRES USA_GUST BOM_GUST BOM_GUST_PER REUNION_GUST REUNION_GUST_PER USA_SEAHGT USA_SEARAD_NE USA_SEARAD_SE USA_SEARAD_SW USA_SEARAD_NW STORM_SPEED STORM_DIR
1888228N23088 1888 35 NI BB NOT_NAMED 1888-08-15 00:00:00 TS 23.4000 87.6000 main 0 0 _________O____ -1 23.4000 87.6000 TC 30 0 0
1888228N23088 1888 35 NI BB NOT_NAMED 1888-08-15 03:00:00 TS 23.4000 87.6000 main 0 0 _________PO___ -1 23.4000 87.6000 TC 30 23.4000 87.6000 1 0 0
1888228N23088 1888 35 NI BB NOT_NAMED 1888-08-15 06:00:00 TS 23.4032 87.5913 main 0 0 _________OP___ -1 23.4000 87.6000 TC 30 23.4079 87.5782 1 0 0
1888228N23088 1888 35 NI BB NOT_NAMED 1888-08-15 09:00:00 TS 23.4054 87.5851 main 0 0 _________PP___ -1 23.4000 87.6000 TC 30 23.4127 87.5651 1 0 0
1888228N23088 1888 35 NI BB NOT_NAMED 1888-08-15 12:00:00 TS 23.4055 87.5847 main 0 0 _________OP___ -1 23.4000 87.6000 TC 30 23.4111 87.5695 1 0 0
1888228N23088 1888 35 NI BB NOT_NAMED 1888-08-15 15:00:00 TS 23.4000 87.6000 main 0 0 _________PO___ -1 23.4000 87.6000 TC 30 23.4000 87.6000 1 0 114
1888228N23088 1888 35 NI BB NOT_NAMED 1888-08-15 18:00:00 TS 23.3897 87.6283 main 0 0 _________OP___ -1 23.4000 87.6000 TC 30 23.3794 87.6566 1 1 113
1888228N23088 1888 35 NI BB NOT_NAMED 1888-08-15 21:00:00 TS 23.3734 87.6785 main 0 0 _________PP___ -1 23.3849 87.6524 TC 30 23.3620 87.7046 1 0 0
1888228N23088 1888 35 NI BB NOT_NAMED 1888-08-16 00:00:00 TS 23.3818 87.6501 main 0 0 _________OP___ -1 23.4000 87.6000 TC 30 23.3636 87.7002 1 2 287
1888228N23088 1888 35 NI BB NOT_NAMED 1888-08-16 03:00:00 TS 23.4388 87.4513 main 0 0 _________PO___ -1 23.4776 87.3025 TC 30 23.4000 87.6000 1 5 289
1888228N23088 1888 35 NI BB NOT_NAMED 1888-08-16 06:00:00 TS 23.5487 87.1296 main 0 0 _________OP___ -1 23.6000 86.9000 TC 30 23.4975 87.3592 1 7 293
1888228N23088 1888 35 NI BB NOT_NAMED 1888-08-16 09:00:00 TS 23.6926 86.7891 main 0 0 _________PP___ -1 23.7574 86.5576 TC 30 23.6279 87.0206 1 7 293
1888228N23088 1888 35 NI BB NOT_NAMED 1888-08-16 12:00:00 TS 23.8346 86.4108 main 0 0 _________OP___ -1 23.9000 86.2000 TC 30 23.7693 86.6217 1 8 288
1888228N23088 1888 35 NI BB NOT_NAMED 1888-08-16 15:00:00 TS 23.9287 86.0036 main 0 0 _________PO___ -1 23.9574 85.8073 TC 30 23.9000 86.2000 1 8 282
1888228N23088 1888 35 NI BB NOT_NAMED 1888-08-16 18:00:00 TS 24.0011 85.5747 main 0 0 _________OP___ -1 24.0000 85.4000 TC 30 24.0023 85.7495 1 8 282
1888228N23088 1888 35 NI BB NOT_NAMED 1888-08-16 21:00:00 TS 24.0981 85.1177 main 0 0 _________PP___ -1 24.1077 84.9402 TC 30 24.0885 85.2952 1 8 283
1888228N23088 1888 35 NI BB NOT_NAMED 1888-08-17 00:00:00 TS 24.1777 84.7466 main 0 0 _________OP___ -1 24.2000 84.6000 TC 30 24.1554 84.8932 1 5 282
1888228N23088 1888 35 NI BB NOT_NAMED 1888-08-17 03:00:00 TS 24.2074 84.5699 main 0 0 _________PO___ -1 24.2148 84.5399 TC 30 24.2000 84.6000 1 2 280
1888228N23088 1888 35 NI BB NOT_NAMED 1888-08-17 06:00:00 TS 24.2105 84.5424 main 0 0 _________OP___ -1 24.2000 84.6000 TC 30 24.2209 84.4847 1 0 0
1888228N23088 1888 35 NI BB NOT_NAMED 1888-08-17 09:00:00 TS 24.2109 84.5399 main 0 0 _________PP___ -1 24.2000 84.6000 TC 30 24.2218 84.4797 1 0 0
1888228N23088 1888 35 NI BB NOT_NAMED 1888-08-17 12:00:00 TS 24.2059 84.5674 main 0 0 _________OP___ -1 24.2000 84.6000 TC 30 24.2118 84.5349 1 1 101
1888228N23088 1888 35 NI BB NOT_NAMED 1888-08-17 15:00:00 TS 24.2000 84.6000 main 0 0 _________PO___ -1 24.2000 84.6000 TC 30 24.2000 84.6000 1 1 100
1888228N23088 1888 35 NI BB NOT_NAMED 1888-08-17 18:00:00 TS 24.1912 84.6647 main 0 0 _________OP___ -1 24.2000 84.6000 TC 30 24.1823 84.7295 1 2 98
1888228N23088 1888 35 NI BB NOT_NAMED 1888-08-17 21:00:00 TS 24.1797 84.7645 main 0 0 _________PP___ -1 24.1921 84.6899 TC 30 24.1673 84.8390 1 0 100
1888228N23088 1888 35 NI BB NOT_NAMED 1888-08-18 00:00:00 TS 24.1843 84.7145 main 0 0 _________OP___ -1 24.2000 84.6000 TC 30 24.1687 84.8291 1 4 275
1888228N23088 1888 35 NI BB NOT_NAMED 1888-08-18 03:00:00 TS 24.2135 84.3748 main 0 0 _________PO___ -1 24.2270 84.1496 TC 30 24.2000 84.6000 1 9 277
1888228N23088 1888 35 NI BB NOT_NAMED 1888-08-18 06:00:00 TS 24.2907 83.7174 main 0 0 _________OP___ -1 24.3000 83.4000 TC 30 24.2814 84.0349 1 14 278
1888228N23088 1888 35 NI BB NOT_NAMED 1888-08-18 09:00:00 TS 24.4157 82.8395 main 0 0 _________PP___ -1 24.4434 82.4305 TC 30 24.3879 83.2486 1 17 279
1888228N23088 1888 35 NI BB NOT_NAMED 1888-08-18 12:00:00 TS 24.5500 81.8689 main 0 0 _________OP___ -1 24.6000 81.4000 TC 30 24.5001 82.3379 1 17 278
1888228N23088 1888 35 NI BB NOT_NAMED 1888-08-18 15:00:00 TS 24.6607 80.9887 main 0 0 _________PO___ -1 24.7214 80.5774 TC 30 24.6000 81.4000 1 16 277
1888228N23088 1888 35 NI BB NOT_NAMED 1888-08-18 18:00:00 TS 24.7408 80.1588 main 0 0 _________OP___ -1 24.8000 79.8000 TC 30 24.6816 80.5175 1 16 275
1888228N23088 1888 35 NI BB NOT_NAMED 1888-08-18 21:00:00 TS 24.7848 79.2677 main 0 0 _________PP___ -1 24.8230 78.8973 TC 30 24.7467 79.6380 1 15 272
1888228N23088 1888 35 NI BB NOT_NAMED 1888-08-19 00:00:00 TS 24.7941 78.4572 main 0 0 _________OP___ -1 24.8000 78.1000 TC 30 24.7882 78.8144 1 13 270
1888228N23088 1888 35 NI AS NOT_NAMED 1888-08-19 03:00:00 TS 24.7784 77.8412 main 0 0 _________PO___ -1 24.7567 77.5825 TC 30 24.8000 78.1000 1 10 267
1888228N23088 1888 35 NI AS NOT_NAMED 1888-08-19 06:00:00 TS 24.7401 77.3799 main 0 0 _________OP___ -1 24.7000 77.2000 TC 30 24.7802 77.5597 1 8 264
1888228N23088 1888 35 NI AS NOT_NAMED 1888-08-19 09:00:00 TS 24.6958 76.9612 main 0 0 _________PP___ -1 24.6573 76.7926 TC 30 24.7343 77.1298 1 7 262
1888228N23088 1888 35 NI AS NOT_NAMED 1888-08-19 12:00:00 TS 24.6357 76.5800 main 0 0 _________OP___ -1 24.6000 76.4000 TC 30 24.6714 76.7599 1 7 258
1888228N23088 1888 35 NI AS NOT_NAMED 1888-08-19 15:00:00 TS 24.5499 76.2037 main 0 0 _________PO___ -1 24.4998 76.0074 TC 30 24.6000 76.4000 1 7 256
1888228N23088 1888 35 NI AS NOT_NAMED 1888-08-19 18:00:00 TS 24.4619 75.7874 main 0 0 _________OP___ -1 24.4000 75.6000 TC 30 24.5237 75.9748 1 8 259
1888228N23088 1888 35 NI AS NOT_NAMED 1888-08-19 21:00:00 TS 24.3923 75.3499 main 0 0 _________PP___ -1 24.3425 75.1501 TC 30 24.4420 75.5498 1 8 261
1888228N23088 1888 35 NI AS NOT_NAMED 1888-08-20 00:00:00 TS 24.3322 74.9124 main 0 0 _________OP___ -1 24.3000 74.7000 TC 30 24.3643 75.1248 1 8 261
1888228N23088 1888 35 NI AS NOT_NAMED 1888-08-20 03:00:00 TS 24.2711 74.5000 main 0 0 _________PO___ -1 24.2423 74.3000 TC 30 24.3000 74.7000 1 8 262
1888228N23088 1888 35 NI AS NOT_NAMED 1888-08-20 06:00:00 TS 24.2281 74.0876 main 0 0 _________OP___ -1 24.2000 73.9000 TC 30 24.2562 74.2752 1 8 265
1888228N23088 1888 35 NI AS NOT_NAMED 1888-08-20 09:00:00 TS 24.2097 73.6539 main 0 0 _________PP___ -1 24.1924 73.4576 TC 30 24.2270 73.8502 1 8 268
1888228N23088 1888 35 NI AS NOT_NAMED 1888-08-20 12:00:00 TS 24.2047 73.2126 main 0 0 _________OP___ -1 24.2000 73.0000 TC 30 24.2093 73.4251 1 8 269
1888228N23088 1888 35 NI AS NOT_NAMED 1888-08-20 15:00:00 TS 24.2000 72.7713 main 0 0 _________PO___ -1 24.1999 72.5425 TC 30 24.2000 73.0000 1 8 269
1888228N23088 1888 35 NI AS NOT_NAMED 1888-08-20 18:00:00 TS 24.1978 72.3714 main 0 0 _________OP___ -1 24.2000 72.1000 TC 30 24.1962 72.5750 1 7 270
1888228N23088 1888 35 NI AS NOT_NAMED 1888-08-20 21:00:00 TS 24.1976 71.9660 main 0 0 _________PP___ -1 24.2002 71.6900 TC 30 24.1959 72.1500 1 7 270
1888228N23088 1888 35 NI AS NOT_NAMED 1888-08-21 00:00:00 TS 24.1985 71.5833 main 0 0 _________OP___ -1 24.2000 71.3000 TC 30 24.1978 71.7250 1 6 270
1888228N23088 1888 35 NI AS NOT_NAMED 1888-08-21 03:00:00 NR 24.2000 71.3000 main 0 __________O___ -1 TC 24.2000 71.3000 1 5 270

About IBTrACS Database

This database is a web-friendly format of International Best Track Archive for Climate Stewardship (IBTrACS), a global best track data archive curated by NOAA dating back to 1842.

Updated: 2021-12-08